createdAt,value
2022-10-12T00:01:38.732Z,15.10
2022-10-12T00:07:40.976Z,15.10
2022-10-12T00:13:43.400Z,15.00
2022-10-12T00:19:45.722Z,15.00
2022-10-12T00:25:47.983Z,14.90
2022-10-12T00:31:50.080Z,14.80
2022-10-12T00:37:55.705Z,14.80
2022-10-12T00:43:58.857Z,14.80
2022-10-12T00:50:11.842Z,14.80
2022-10-12T00:56:20.058Z,14.80
2022-10-12T01:02:25.518Z,14.80
2022-10-12T01:08:29.133Z,14.80
2022-10-12T01:14:31.229Z,14.80
2022-10-12T01:27:45.275Z,14.80
2022-10-12T01:33:58.467Z,14.80
2022-10-12T01:40:07.864Z,14.80
2022-10-12T01:46:13.037Z,14.80
2022-10-12T01:52:17.862Z,14.70
2022-10-12T01:59:07.776Z,14.70
2022-10-12T02:05:33.135Z,14.70
2022-10-12T02:11:39.091Z,14.60
2022-10-12T02:17:42.590Z,14.60
2022-10-12T02:23:46.647Z,14.60
2022-10-12T02:29:49.556Z,14.60
2022-10-12T02:35:59.094Z,14.60
2022-10-12T02:42:08.377Z,14.50
2022-10-12T02:48:13.861Z,14.50
2022-10-12T02:54:16.264Z,14.50
2022-10-12T03:00:18.664Z,14.50
2022-10-12T03:06:21.011Z,14.60
2022-10-12T03:12:23.165Z,14.60
2022-10-12T03:18:25.235Z,14.60
2022-10-12T03:24:27.290Z,14.60
2022-10-12T03:30:29.497Z,14.60
2022-10-12T03:36:32.394Z,14.60
2022-10-12T03:42:34.598Z,14.50
2022-10-12T03:48:36.690Z,14.50
2022-10-12T03:54:38.742Z,14.30
2022-10-12T04:00:40.710Z,14.20
2022-10-12T04:06:42.828Z,14.30
2022-10-12T04:12:45.279Z,14.20
2022-10-12T04:18:47.375Z,14.10
2022-10-12T04:24:49.606Z,14.10
2022-10-12T04:30:51.990Z,14.10
2022-10-12T04:36:54.244Z,14.00
2022-10-12T04:42:56.426Z,14.00
2022-10-12T04:48:58.431Z,14.00
2022-10-12T04:55:00.543Z,14.00
2022-10-12T05:01:02.595Z,14.00
2022-10-12T05:07:04.780Z,14.00
2022-10-12T05:13:07.461Z,14.00
2022-10-12T05:19:09.973Z,13.90
2022-10-12T05:25:12.153Z,14.00
2022-10-12T05:31:14.324Z,14.10
2022-10-12T05:37:16.531Z,14.00
2022-10-12T05:43:18.735Z,13.90
2022-10-12T05:49:20.842Z,13.90
2022-10-12T05:55:23.084Z,14.00
2022-10-12T06:01:25.392Z,14.10
2022-10-12T06:07:28.179Z,14.30
2022-10-12T06:13:30.296Z,14.40
2022-10-12T06:19:32.509Z,14.40
2022-10-12T06:25:34.745Z,14.50
2022-10-12T06:31:38.658Z,14.60
2022-10-12T06:37:51.527Z,14.70
2022-10-12T06:43:53.736Z,14.40
2022-10-12T06:49:55.825Z,14.70
2022-10-12T06:55:57.741Z,14.70
2022-10-12T07:01:59.921Z,15.10
2022-10-12T07:08:01.956Z,15.50
2022-10-12T07:14:04.219Z,16.00
2022-10-12T07:20:07.793Z,16.60
2022-10-12T07:26:09.941Z,17.10
2022-10-12T07:32:12.046Z,17.90
2022-10-12T07:38:14.083Z,18.20
2022-10-12T07:44:16.465Z,18.10
2022-10-12T07:50:18.659Z,18.00
2022-10-12T07:56:21.083Z,17.80
2022-10-12T08:02:23.278Z,18.30
2022-10-12T08:08:25.324Z,18.30
2022-10-12T08:14:27.944Z,18.50
2022-10-12T08:20:30.017Z,18.90
2022-10-12T08:26:33.587Z,20.00
2022-10-12T08:32:35.805Z,21.20
2022-10-12T08:38:43.368Z,20.50
2022-10-12T08:45:21.168Z,19.90
2022-10-12T08:51:27.376Z,19.40
2022-10-12T08:57:29.592Z,19.70
2022-10-12T09:03:47.708Z,20.10
2022-10-12T09:09:58.588Z,20.60
2022-10-12T09:16:05.253Z,21.00
2022-10-12T09:22:20.079Z,21.30
2022-10-12T09:28:29.425Z,21.40
2022-10-12T09:34:32.175Z,21.30
2022-10-12T09:40:34.203Z,20.70
2022-10-12T09:46:41.521Z,21.00
2022-10-12T09:52:45.314Z,21.20
2022-10-12T09:59:00.759Z,21.30
2022-10-12T10:11:33.281Z,21.70
2022-10-12T10:17:35.294Z,22.50
2022-10-12T10:23:43.487Z,22.40
2022-10-12T10:29:45.801Z,23.10
2022-10-12T10:36:13.749Z,23.40
2022-10-12T10:42:32.590Z,23.20
2022-10-12T10:48:57.000Z,23.00
2022-10-12T10:55:11.742Z,23.20
2022-10-12T11:01:23.430Z,23.30
2022-10-12T11:07:36.123Z,23.00
2022-10-12T11:13:41.416Z,24.10
2022-10-12T11:19:52.395Z,23.50
2022-10-12T11:26:36.590Z,23.20
2022-10-12T11:33:03.899Z,23.00
2022-10-12T11:39:14.198Z,22.70
2022-10-12T11:45:29.963Z,22.00
2022-10-12T11:51:32.411Z,22.00
2022-10-12T11:57:38.299Z,21.70
2022-10-12T12:10:42.145Z,21.90
2022-10-12T12:16:44.452Z,21.90
2022-10-12T12:22:52.476Z,21.80
2022-10-12T12:29:25.283Z,21.70
2022-10-12T12:35:52.550Z,21.60
2022-10-12T12:42:02.361Z,21.50
2022-10-12T12:48:09.880Z,21.70
2022-10-12T12:54:23.222Z,21.90
2022-10-12T13:00:56.939Z,21.60
2022-10-12T13:07:20.447Z,21.50
2022-10-12T13:14:00.000Z,21.20
2022-10-12T13:20:16.946Z,21.20
2022-10-12T13:26:24.907Z,21.10
2022-10-12T13:32:32.902Z,21.20
2022-10-12T13:38:38.913Z,21.30
2022-10-12T13:44:42.453Z,21.40
2022-10-12T13:50:56.613Z,21.00
2022-10-12T13:57:16.053Z,20.60
2022-10-12T14:03:18.256Z,20.40
2022-10-12T14:09:24.366Z,20.10
2022-10-12T14:15:32.240Z,19.90
2022-10-12T14:21:36.841Z,19.70
2022-10-12T14:27:40.378Z,19.60
2022-10-12T14:33:43.302Z,19.50
2022-10-12T14:39:48.450Z,19.40
2022-10-12T14:45:52.627Z,19.30
2022-10-12T14:51:55.814Z,19.20
2022-10-12T14:57:58.068Z,19.10
2022-10-12T15:04:00.467Z,19.10
2022-10-12T15:10:02.837Z,18.90
2022-10-12T15:16:20.197Z,18.80
2022-10-12T15:22:26.979Z,18.60
2022-10-12T15:28:30.279Z,18.50
2022-10-12T15:34:32.406Z,18.30
2022-10-12T15:40:34.867Z,18.00
2022-10-12T15:46:37.205Z,17.80
2022-10-12T15:52:39.383Z,17.50
2022-10-12T15:58:41.481Z,17.30
2022-10-12T16:04:43.921Z,17.10
2022-10-12T16:10:48.084Z,16.90
2022-10-12T16:16:50.114Z,16.70
2022-10-12T16:22:52.621Z,16.60
2022-10-12T16:28:54.796Z,16.40
2022-10-12T16:41:34.513Z,16.20
2022-10-12T16:47:41.961Z,16.10
2022-10-12T16:53:45.333Z,16.00
2022-10-12T16:59:48.535Z,15.90
2022-10-12T17:05:59.160Z,15.70
2022-10-12T17:12:01.254Z,15.60
2022-10-12T17:18:03.582Z,15.40
2022-10-12T17:24:06.418Z,15.30
2022-10-12T17:30:08.689Z,15.20
2022-10-12T17:36:11.747Z,15.10
2022-10-12T17:42:21.157Z,15.00
2022-10-12T17:48:23.880Z,14.90
2022-10-12T17:54:27.228Z,14.80
2022-10-12T18:00:29.634Z,14.70
2022-10-12T18:06:33.631Z,14.60
2022-10-12T18:12:35.855Z,14.50
2022-10-12T18:18:38.816Z,14.40
2022-10-12T18:24:41.095Z,14.40
2022-10-12T18:30:47.953Z,14.30
2022-10-12T18:36:50.166Z,14.20
2022-10-12T18:42:52.268Z,14.20
2022-10-12T18:48:54.612Z,14.20
2022-10-12T18:54:57.182Z,14.10
2022-10-12T19:00:59.949Z,14.10
2022-10-12T19:07:02.437Z,14.10
2022-10-12T19:13:04.739Z,14.00
2022-10-12T19:19:14.807Z,13.90
2022-10-12T19:25:19.524Z,13.90
2022-10-12T19:31:27.945Z,13.70
2022-10-12T19:37:30.187Z,13.70
2022-10-12T19:43:33.980Z,13.60
2022-10-12T19:49:37.879Z,13.60
2022-10-12T19:55:42.344Z,13.60
2022-10-12T20:01:48.308Z,13.50
2022-10-12T20:07:50.779Z,13.50
2022-10-12T20:13:53.525Z,13.40
2022-10-12T20:19:56.833Z,13.40
2022-10-12T20:25:58.857Z,13.30
2022-10-12T20:32:01.267Z,13.20
2022-10-12T20:38:04.321Z,13.20
2022-10-12T20:44:06.441Z,13.10
2022-10-12T20:50:08.899Z,13.00
2022-10-12T20:56:11.687Z,13.00
2022-10-12T21:02:13.941Z,13.00
2022-10-12T21:08:15.991Z,12.90
2022-10-12T21:14:18.312Z,12.80
2022-10-12T21:20:20.402Z,12.80
2022-10-12T21:26:24.285Z,12.70
2022-10-12T21:32:26.694Z,12.70
2022-10-12T21:38:30.884Z,12.60
2022-10-12T21:44:33.120Z,12.50
2022-10-12T21:50:35.645Z,12.40
2022-10-12T21:56:38.217Z,12.40
2022-10-12T22:02:40.689Z,12.40
2022-10-12T22:08:43.734Z,12.30
2022-10-12T22:14:48.725Z,12.30
2022-10-12T22:20:53.422Z,12.20
2022-10-12T22:26:55.898Z,12.20
2022-10-12T22:32:58.194Z,12.20
2022-10-12T22:39:00.482Z,12.20
2022-10-12T22:45:03.060Z,12.20
2022-10-12T22:51:07.253Z,12.10
2022-10-12T22:57:10.077Z,12.10
2022-10-12T23:03:12.869Z,12.10
2022-10-12T23:09:15.137Z,12.20
2022-10-12T23:15:17.879Z,12.10
2022-10-12T23:21:20.890Z,12.00
2022-10-12T23:27:22.890Z,12.00
2022-10-12T23:33:25.205Z,11.90
2022-10-12T23:39:27.280Z,11.90
2022-10-12T23:45:29.346Z,11.90
2022-10-12T23:51:31.570Z,11.80
2022-10-12T23:57:46.709Z,11.70
